sensor_id;sensor_type;location;lat;lon;timestamp;temperature;humidity
42989;DHT22;28622;43.716;20.668;2022-11-20T00:01:30;10.70;99.90
42989;DHT22;28622;43.716;20.668;2022-11-20T00:03:56;10.70;99.90
42989;DHT22;28622;43.716;20.668;2022-11-20T00:06:26;10.60;99.90
42989;DHT22;28622;43.716;20.668;2022-11-20T00:08:55;10.60;99.90
42989;DHT22;28622;43.716;20.668;2022-11-20T00:11:23;10.60;99.90
42989;DHT22;28622;43.716;20.668;2022-11-20T00:13:51;10.70;99.90
42989;DHT22;28622;43.716;20.668;2022-11-20T00:16:20;10.60;99.90
42989;DHT22;28622;43.716;20.668;2022-11-20T00:18:46;10.60;99.90
42989;DHT22;28622;43.716;20.668;2022-11-20T00:21:17;10.60;99.90
42989;DHT22;28622;43.716;20.668;2022-11-20T00:23:43;10.60;99.90
42989;DHT22;28622;43.716;20.668;2022-11-20T00:26:12;10.50;99.90
42989;DHT22;28622;43.716;20.668;2022-11-20T00:28:38;10.50;99.90
42989;DHT22;28622;43.716;20.668;2022-11-20T00:31:05;10.50;99.90
42989;DHT22;28622;43.716;20.668;2022-11-20T00:33:31;10.40;99.90
42989;DHT22;28622;43.716;20.668;2022-11-20T00:36:05;10.30;99.90
42989;DHT22;28622;43.716;20.668;2022-11-20T00:38:32;10.30;99.90
42989;DHT22;28622;43.716;20.668;2022-11-20T00:40:59;10.30;99.90
42989;DHT22;28622;43.716;20.668;2022-11-20T00:43:25;10.30;99.90
42989;DHT22;28622;43.716;20.668;2022-11-20T00:46:35;10.30;99.90
42989;DHT22;28622;43.716;20.668;2022-11-20T00:48:54;10.30;99.90
42989;DHT22;28622;43.716;20.668;2022-11-20T00:51:22;10.30;99.90
42989;DHT22;28622;43.716;20.668;2022-11-20T00:53:48;10.30;99.90
42989;DHT22;28622;43.716;20.668;2022-11-20T00:56:16;10.20;99.90
42989;DHT22;28622;43.716;20.668;2022-11-20T00:58:44;10.20;99.90
42989;DHT22;28622;43.716;20.668;2022-11-20T01:01:13;10.20;99.90
42989;DHT22;28622;43.716;20.668;2022-11-20T01:03:45;10.30;99.90
42989;DHT22;28622;43.716;20.668;2022-11-20T01:06:27;10.30;99.90
42989;DHT22;28622;43.716;20.668;2022-11-20T01:08:55;10.30;99.90
42989;DHT22;28622;43.716;20.668;2022-11-20T01:11:29;10.30;99.90
42989;DHT22;28622;43.716;20.668;2022-11-20T01:13:57;10.20;99.90
42989;DHT22;28622;43.716;20.668;2022-11-20T01:16:32;10.30;99.90
42989;DHT22;28622;43.716;20.668;2022-11-20T01:19:00;10.30;99.90
42989;DHT22;28622;43.716;20.668;2022-11-20T01:21:30;10.30;99.90
42989;DHT22;28622;43.716;20.668;2022-11-20T01:23:56;10.20;99.90
42989;DHT22;28622;43.716;20.668;2022-11-20T01:26:28;10.30;99.90
42989;DHT22;28622;43.716;20.668;2022-11-20T01:28:55;10.30;99.90
42989;DHT22;28622;43.716;20.668;2022-11-20T01:31:27;10.30;99.90
42989;DHT22;28622;43.716;20.668;2022-11-20T01:33:56;10.30;99.90
42989;DHT22;28622;43.716;20.668;2022-11-20T01:36:25;10.30;99.90
42989;DHT22;28622;43.716;20.668;2022-11-20T01:38:56;10.30;99.90
42989;DHT22;28622;43.716;20.668;2022-11-20T01:41:23;10.30;99.90
42989;DHT22;28622;43.716;20.668;2022-11-20T01:44:11;10.40;99.90
42989;DHT22;28622;43.716;20.668;2022-11-20T01:46:42;10.40;99.90
42989;DHT22;28622;43.716;20.668;2022-11-20T01:49:34;10.40;99.90
42989;DHT22;28622;43.716;20.668;2022-11-20T01:52:06;10.40;99.90
42989;DHT22;28622;43.716;20.668;2022-11-20T01:54:39;10.40;99.90
42989;DHT22;28622;43.716;20.668;2022-11-20T01:57:08;10.40;99.90
42989;DHT22;28622;43.716;20.668;2022-11-20T01:59:35;10.40;99.90
42989;DHT22;28622;43.716;20.668;2022-11-20T02:02:05;10.50;99.90
42989;DHT22;28622;43.716;20.668;2022-11-20T02:04:30;10.40;99.90
42989;DHT22;28622;43.716;20.668;2022-11-20T02:07:04;10.40;99.90
42989;DHT22;28622;43.716;20.668;2022-11-20T02:09:30;10.50;99.90
42989;DHT22;28622;43.716;20.668;2022-11-20T02:11:57;10.50;99.90
42989;DHT22;28622;43.716;20.668;2022-11-20T02:14:24;10.50;99.90
42989;DHT22;28622;43.716;20.668;2022-11-20T02:16:51;10.50;99.90
42989;DHT22;28622;43.716;20.668;2022-11-20T02:22:14;10.60;99.90
42989;DHT22;28622;43.716;20.668;2022-11-20T02:24:41;10.70;99.90
42989;DHT22;28622;43.716;20.668;2022-11-20T02:27:12;10.70;99.90
42989;DHT22;28622;43.716;20.668;2022-11-20T02:29:57;10.80;99.90
42989;DHT22;28622;43.716;20.668;2022-11-20T02:32:31;10.90;99.90
42989;DHT22;28622;43.716;20.668;2022-11-20T02:34:57;11.00;99.90
42989;DHT22;28622;43.716;20.668;2022-11-20T02:37:29;11.00;99.90
42989;DHT22;28622;43.716;20.668;2022-11-20T02:39:56;11.10;99.90
42989;DHT22;28622;43.716;20.668;2022-11-20T02:42:21;11.20;99.90
42989;DHT22;28622;43.716;20.668;2022-11-20T02:44:47;11.30;99.90
42989;DHT22;28622;43.716;20.668;2022-11-20T02:47:13;11.30;99.90
42989;DHT22;28622;43.716;20.668;2022-11-20T02:49:38;11.40;99.90
42989;DHT22;28622;43.716;20.668;2022-11-20T02:52:04;11.40;99.90
42989;DHT22;28622;43.716;20.668;2022-11-20T02:54:33;11.40;99.90
42989;DHT22;28622;43.716;20.668;2022-11-20T02:56:59;11.40;99.90
42989;DHT22;28622;43.716;20.668;2022-11-20T02:59:24;11.40;99.90
42989;DHT22;28622;43.716;20.668;2022-11-20T03:01:50;11.40;99.90
42989;DHT22;28622;43.716;20.668;2022-11-20T03:04:16;11.40;99.90
42989;DHT22;28622;43.716;20.668;2022-11-20T03:06:41;11.40;99.90
42989;DHT22;28622;43.716;20.668;2022-11-20T03:09:07;11.40;99.90
42989;DHT22;28622;43.716;20.668;2022-11-20T03:11:33;11.30;99.90
42989;DHT22;28622;43.716;20.668;2022-11-20T03:14:03;11.30;99.90
42989;DHT22;28622;43.716;20.668;2022-11-20T03:16:30;11.30;99.90
42989;DHT22;28622;43.716;20.668;2022-11-20T03:18:56;11.30;99.90
42989;DHT22;28622;43.716;20.668;2022-11-20T03:21:21;11.30;99.90
42989;DHT22;28622;43.716;20.668;2022-11-20T03:23:47;11.30;99.90
42989;DHT22;28622;43.716;20.668;2022-11-20T03:28:52;11.30;99.90
42989;DHT22;28622;43.716;20.668;2022-11-20T03:31:21;11.30;99.90
42989;DHT22;28622;43.716;20.668;2022-11-20T03:33:47;11.30;99.90
42989;DHT22;28622;43.716;20.668;2022-11-20T03:36:15;11.30;99.90
42989;DHT22;28622;43.716;20.668;2022-11-20T03:38:41;11.30;99.90
42989;DHT22;28622;43.716;20.668;2022-11-20T03:41:18;11.30;99.90
42989;DHT22;28622;43.716;20.668;2022-11-20T03:43:55;11.30;99.90
42989;DHT22;28622;43.716;20.668;2022-11-20T03:46:21;11.30;99.90
42989;DHT22;28622;43.716;20.668;2022-11-20T03:48:47;11.30;99.90
42989;DHT22;28622;43.716;20.668;2022-11-20T03:51:22;11.40;99.90
42989;DHT22;28622;43.716;20.668;2022-11-20T03:53:49;11.40;99.90
42989;DHT22;28622;43.716;20.668;2022-11-20T03:56:17;11.40;99.90
42989;DHT22;28622;43.716;20.668;2022-11-20T03:58:43;11.50;99.90
42989;DHT22;28622;43.716;20.668;2022-11-20T04:01:15;11.50;99.90
42989;DHT22;28622;43.716;20.668;2022-11-20T04:03:42;11.50;99.90
42989;DHT22;28622;43.716;20.668;2022-11-20T04:06:11;11.40;99.90
42989;DHT22;28622;43.716;20.668;2022-11-20T04:08:38;11.40;99.90
42989;DHT22;28622;43.716;20.668;2022-11-20T04:11:15;11.40;99.90
42989;DHT22;28622;43.716;20.668;2022-11-20T04:13:41;11.40;99.90
42989;DHT22;28622;43.716;20.668;2022-11-20T04:16:09;11.40;99.90
42989;DHT22;28622;43.716;20.668;2022-11-20T04:18:35;11.50;99.90
42989;DHT22;28622;43.716;20.668;2022-11-20T04:21:02;11.50;99.90
42989;DHT22;28622;43.716;20.668;2022-11-20T04:23:28;11.50;99.90
42989;DHT22;28622;43.716;20.668;2022-11-20T04:26:08;11.50;99.90
42989;DHT22;28622;43.716;20.668;2022-11-20T04:28:35;11.50;99.90
42989;DHT22;28622;43.716;20.668;2022-11-20T04:33:29;11.50;99.90
42989;DHT22;28622;43.716;20.668;2022-11-20T04:36:00;11.50;99.90
42989;DHT22;28622;43.716;20.668;2022-11-20T04:38:29;11.50;99.90
42989;DHT22;28622;43.716;20.668;2022-11-20T04:40:59;11.50;99.90
42989;DHT22;28622;43.716;20.668;2022-11-20T04:43:25;11.50;99.90
42989;DHT22;28622;43.716;20.668;2022-11-20T04:45:52;11.50;99.90
42989;DHT22;28622;43.716;20.668;2022-11-20T04:48:18;11.50;99.90
42989;DHT22;28622;43.716;20.668;2022-11-20T04:50:44;11.50;99.90
42989;DHT22;28622;43.716;20.668;2022-11-20T04:53:10;11.50;99.90
42989;DHT22;28622;43.716;20.668;2022-11-20T04:55:36;11.50;99.90
42989;DHT22;28622;43.716;20.668;2022-11-20T04:58:01;11.50;99.90
42989;DHT22;28622;43.716;20.668;2022-11-20T05:00:27;11.50;99.90
42989;DHT22;28622;43.716;20.668;2022-11-20T05:02:53;11.50;99.90
42989;DHT22;28622;43.716;20.668;2022-11-20T05:05:18;11.50;99.90
42989;DHT22;28622;43.716;20.668;2022-11-20T05:07:44;11.40;99.90
42989;DHT22;28622;43.716;20.668;2022-11-20T05:10:10;11.40;99.90
42989;DHT22;28622;43.716;20.668;2022-11-20T05:12:36;11.40;99.90
42989;DHT22;28622;43.716;20.668;2022-11-20T05:15:01;11.40;99.90
42989;DHT22;28622;43.716;20.668;2022-11-20T05:17:27;11.50;99.90
42989;DHT22;28622;43.716;20.668;2022-11-20T05:19:53;11.50;99.90
42989;DHT22;28622;43.716;20.668;2022-11-20T05:22:19;11.50;99.90
42989;DHT22;28622;43.716;20.668;2022-11-20T05:24:44;11.50;99.90
42989;DHT22;28622;43.716;20.668;2022-11-20T05:27:10;11.50;99.90
42989;DHT22;28622;43.716;20.668;2022-11-20T05:29:36;11.50;99.90
42989;DHT22;28622;43.716;20.668;2022-11-20T05:32:02;11.60;99.90
42989;DHT22;28622;43.716;20.668;2022-11-20T05:34:27;11.60;99.90
42989;DHT22;28622;43.716;20.668;2022-11-20T05:36:53;11.60;99.90
42989;DHT22;28622;43.716;20.668;2022-11-20T05:39:19;11.60;99.90
42989;DHT22;28622;43.716;20.668;2022-11-20T05:41:45;11.60;99.90
42989;DHT22;28622;43.716;20.668;2022-11-20T05:44:13;11.60;99.90
42989;DHT22;28622;43.716;20.668;2022-11-20T05:46:38;11.60;99.90
42989;DHT22;28622;43.716;20.668;2022-11-20T05:49:04;11.70;99.90
42989;DHT22;28622;43.716;20.668;2022-11-20T05:51:30;11.70;99.90
42989;DHT22;28622;43.716;20.668;2022-11-20T05:53:56;11.70;99.90
42989;DHT22;28622;43.716;20.668;2022-11-20T05:56:23;11.70;99.90
42989;DHT22;28622;43.716;20.668;2022-11-20T05:58:49;11.60;99.90
42989;DHT22;28622;43.716;20.668;2022-11-20T06:01:24;11.60;99.90
42989;DHT22;28622;43.716;20.668;2022-11-20T06:03:50;11.60;99.90
42989;DHT22;28622;43.716;20.668;2022-11-20T06:06:17;11.60;99.90
42989;DHT22;28622;43.716;20.668;2022-11-20T06:08:44;11.60;99.90
42989;DHT22;28622;43.716;20.668;2022-11-20T06:11:11;11.60;99.90
42989;DHT22;28622;43.716;20.668;2022-11-20T06:13:38;11.60;99.90
42989;DHT22;28622;43.716;20.668;2022-11-20T06:16:04;11.60;99.90
42989;DHT22;28622;43.716;20.668;2022-11-20T06:18:30;11.60;99.90
42989;DHT22;28622;43.716;20.668;2022-11-20T06:21:11;11.60;99.90
42989;DHT22;28622;43.716;20.668;2022-11-20T06:23:37;11.50;99.90
42989;DHT22;28622;43.716;20.668;2022-11-20T06:26:08;11.60;99.90
42989;DHT22;28622;43.716;20.668;2022-11-20T06:28:34;11.60;99.90
42989;DHT22;28622;43.716;20.668;2022-11-20T06:31:00;11.70;99.90
42989;DHT22;28622;43.716;20.668;2022-11-20T06:33:26;11.70;99.90
42989;DHT22;28622;43.716;20.668;2022-11-20T06:35:55;11.70;99.90
42989;DHT22;28622;43.716;20.668;2022-11-20T06:38:21;11.70;99.90
42989;DHT22;28622;43.716;20.668;2022-11-20T06:40:47;11.80;99.90
42989;DHT22;28622;43.716;20.668;2022-11-20T06:43:12;11.80;99.90
42989;DHT22;28622;43.716;20.668;2022-11-20T06:45:38;11.90;99.90
42989;DHT22;28622;43.716;20.668;2022-11-20T06:48:04;11.90;99.90
42989;DHT22;28622;43.716;20.668;2022-11-20T06:50:30;11.90;99.90
42989;DHT22;28622;43.716;20.668;2022-11-20T06:52:56;11.90;99.90
42989;DHT22;28622;43.716;20.668;2022-11-20T06:55:22;11.90;99.90
42989;DHT22;28622;43.716;20.668;2022-11-20T06:57:47;11.90;99.90
42989;DHT22;28622;43.716;20.668;2022-11-20T07:00:13;11.90;99.90
42989;DHT22;28622;43.716;20.668;2022-11-20T07:02:39;12.00;99.90
42989;DHT22;28622;43.716;20.668;2022-11-20T07:05:05;12.00;99.90
42989;DHT22;28622;43.716;20.668;2022-11-20T07:07:31;12.00;99.90
42989;DHT22;28622;43.716;20.668;2022-11-20T07:09:57;12.10;99.90
42989;DHT22;28622;43.716;20.668;2022-11-20T07:12:22;12.10;99.90
42989;DHT22;28622;43.716;20.668;2022-11-20T07:14:48;12.20;99.90
42989;DHT22;28622;43.716;20.668;2022-11-20T07:17:14;12.30;99.90
42989;DHT22;28622;43.716;20.668;2022-11-20T07:19:40;12.30;99.90
42989;DHT22;28622;43.716;20.668;2022-11-20T07:22:05;12.30;99.90
42989;DHT22;28622;43.716;20.668;2022-11-20T07:24:31;12.30;99.90
42989;DHT22;28622;43.716;20.668;2022-11-20T07:26:57;12.40;99.90
42989;DHT22;28622;43.716;20.668;2022-11-20T07:29:23;12.40;99.90
42989;DHT22;28622;43.716;20.668;2022-11-20T07:31:48;12.40;99.90
42989;DHT22;28622;43.716;20.668;2022-11-20T07:34:14;12.40;99.90
42989;DHT22;28622;43.716;20.668;2022-11-20T07:36:40;12.40;99.90
42989;DHT22;28622;43.716;20.668;2022-11-20T07:39:06;12.40;99.90
42989;DHT22;28622;43.716;20.668;2022-11-20T07:41:32;12.40;99.90
42989;DHT22;28622;43.716;20.668;2022-11-20T07:43:58;12.40;99.90
42989;DHT22;28622;43.716;20.668;2022-11-20T07:46:24;12.40;99.90
42989;DHT22;28622;43.716;20.668;2022-11-20T07:48:49;12.10;99.90
42989;DHT22;28622;43.716;20.668;2022-11-20T07:51:15;12.10;99.90
42989;DHT22;28622;43.716;20.668;2022-11-20T07:53:41;11.90;99.90
42989;DHT22;28622;43.716;20.668;2022-11-20T07:56:07;11.80;99.90
42989;DHT22;28622;43.716;20.668;2022-11-20T07:58:32;11.70;99.90
42989;DHT22;28622;43.716;20.668;2022-11-20T08:01:04;11.50;99.90
42989;DHT22;28622;43.716;20.668;2022-11-20T08:03:30;11.30;99.90
42989;DHT22;28622;43.716;20.668;2022-11-20T08:06:01;11.30;99.90
42989;DHT22;28622;43.716;20.668;2022-11-20T08:08:27;11.10;99.90
42989;DHT22;28622;43.716;20.668;2022-11-20T08:10:54;11.00;99.90
42989;DHT22;28622;43.716;20.668;2022-11-20T08:13:39;11.00;99.90
42989;DHT22;28622;43.716;20.668;2022-11-20T08:16:23;10.90;99.90
42989;DHT22;28622;43.716;20.668;2022-11-20T08:18:49;10.90;99.90
42989;DHT22;28622;43.716;20.668;2022-11-20T08:21:15;10.90;99.90
42989;DHT22;28622;43.716;20.668;2022-11-20T08:23:41;10.90;99.90
42989;DHT22;28622;43.716;20.668;2022-11-20T08:26:07;10.90;99.90
42989;DHT22;28622;43.716;20.668;2022-11-20T08:28:32;11.00;99.90
42989;DHT22;28622;43.716;20.668;2022-11-20T08:31:02;11.00;99.90
42989;DHT22;28622;43.716;20.668;2022-11-20T08:33:29;10.90;99.90
42989;DHT22;28622;43.716;20.668;2022-11-20T08:36:02;11.00;99.90
42989;DHT22;28622;43.716;20.668;2022-11-20T08:38:28;10.90;99.90
42989;DHT22;28622;43.716;20.668;2022-11-20T08:41:02;11.00;99.90
42989;DHT22;28622;43.716;20.668;2022-11-20T08:43:46;11.00;99.90
42989;DHT22;28622;43.716;20.668;2022-11-20T08:46:12;11.00;99.90
42989;DHT22;28622;43.716;20.668;2022-11-20T08:48:38;10.90;99.90
42989;DHT22;28622;43.716;20.668;2022-11-20T08:51:04;11.00;99.90
42989;DHT22;28622;43.716;20.668;2022-11-20T08:53:30;11.00;99.90
42989;DHT22;28622;43.716;20.668;2022-11-20T08:55:57;11.00;99.90
42989;DHT22;28622;43.716;20.668;2022-11-20T08:58:23;11.00;99.90
42989;DHT22;28622;43.716;20.668;2022-11-20T09:00:49;11.00;99.90
42989;DHT22;28622;43.716;20.668;2022-11-20T09:03:15;11.00;99.90
42989;DHT22;28622;43.716;20.668;2022-11-20T09:05:40;11.10;99.90
42989;DHT22;28622;43.716;20.668;2022-11-20T09:08:06;11.00;99.90
42989;DHT22;28622;43.716;20.668;2022-11-20T09:10:32;10.90;99.90
42989;DHT22;28622;43.716;20.668;2022-11-20T09:13:00;11.00;99.90
42989;DHT22;28622;43.716;20.668;2022-11-20T09:15:27;11.00;99.90
42989;DHT22;28622;43.716;20.668;2022-11-20T09:18:01;10.90;99.90
42989;DHT22;28622;43.716;20.668;2022-11-20T09:20:28;11.00;99.90
42989;DHT22;28622;43.716;20.668;2022-11-20T09:22:55;11.00;99.90
42989;DHT22;28622;43.716;20.668;2022-11-20T09:25:21;11.00;99.90
42989;DHT22;28622;43.716;20.668;2022-11-20T09:27:47;11.10;99.90
42989;DHT22;28622;43.716;20.668;2022-11-20T09:30:14;11.10;99.90
42989;DHT22;28622;43.716;20.668;2022-11-20T09:32:40;11.20;99.90
42989;DHT22;28622;43.716;20.668;2022-11-20T09:35:06;11.20;99.90
42989;DHT22;28622;43.716;20.668;2022-11-20T09:37:32;11.20;99.90
42989;DHT22;28622;43.716;20.668;2022-11-20T09:39:58;11.30;99.90
42989;DHT22;28622;43.716;20.668;2022-11-20T09:48:22;11.30;99.90
42989;DHT22;28622;43.716;20.668;2022-11-20T09:56:16;11.20;99.90
42989;DHT22;28622;43.716;20.668;2022-11-20T09:58:49;11.20;99.90
42989;DHT22;28622;43.716;20.668;2022-11-20T10:01:18;11.30;99.90
42989;DHT22;28622;43.716;20.668;2022-11-20T10:04:15;11.30;99.90
42989;DHT22;28622;43.716;20.668;2022-11-20T10:09:51;11.40;99.90
42989;DHT22;28622;43.716;20.668;2022-11-20T10:17:42;11.40;99.90
42989;DHT22;28622;43.716;20.668;2022-11-20T10:26:22;11.30;99.90
42989;DHT22;28622;43.716;20.668;2022-11-20T10:29:09;11.40;99.90
42989;DHT22;28622;43.716;20.668;2022-11-20T10:31:56;11.40;99.90
42989;DHT22;28622;43.716;20.668;2022-11-20T10:34:38;11.40;99.90
42989;DHT22;28622;43.716;20.668;2022-11-20T10:37:22;11.40;99.90
42989;DHT22;28622;43.716;20.668;2022-11-20T10:40:01;11.40;99.90
42989;DHT22;28622;43.716;20.668;2022-11-20T10:42:47;11.40;99.90
42989;DHT22;28622;43.716;20.668;2022-11-20T10:48:07;11.50;99.90
42989;DHT22;28622;43.716;20.668;2022-11-20T10:50:37;11.50;99.90
42989;DHT22;28622;43.716;20.668;2022-11-20T10:56:00;11.40;99.90
42989;DHT22;28622;43.716;20.668;2022-11-20T11:01:13;11.50;99.90
42989;DHT22;28622;43.716;20.668;2022-11-20T11:03:40;11.50;99.90
42989;DHT22;28622;43.716;20.668;2022-11-20T11:06:42;11.50;99.90
42989;DHT22;28622;43.716;20.668;2022-11-20T11:09:19;11.40;99.90
42989;DHT22;28622;43.716;20.668;2022-11-20T11:11:46;11.40;99.90
42989;DHT22;28622;43.716;20.668;2022-11-20T11:14:14;11.30;99.90
42989;DHT22;28622;43.716;20.668;2022-11-20T11:16:57;11.40;99.90
42989;DHT22;28622;43.716;20.668;2022-11-20T11:19:23;11.40;99.90
42989;DHT22;28622;43.716;20.668;2022-11-20T11:21:52;11.40;99.90
42989;DHT22;28622;43.716;20.668;2022-11-20T11:24:22;11.40;99.90
42989;DHT22;28622;43.716;20.668;2022-11-20T11:26:57;11.40;99.90
42989;DHT22;28622;43.716;20.668;2022-11-20T11:29:23;11.50;99.90
42989;DHT22;28622;43.716;20.668;2022-11-20T11:32:06;11.40;99.90
42989;DHT22;28622;43.716;20.668;2022-11-20T11:34:32;11.40;99.90
42989;DHT22;28622;43.716;20.668;2022-11-20T11:37:00;11.30;99.90
42989;DHT22;28622;43.716;20.668;2022-11-20T11:39:28;11.30;99.90
42989;DHT22;28622;43.716;20.668;2022-11-20T11:41:55;11.20;99.90
42989;DHT22;28622;43.716;20.668;2022-11-20T11:44:26;11.20;99.90
42989;DHT22;28622;43.716;20.668;2022-11-20T11:47:25;11.20;99.90
42989;DHT22;28622;43.716;20.668;2022-11-20T11:58:25;11.20;99.90
42989;DHT22;28622;43.716;20.668;2022-11-20T12:04:05;11.10;99.90
42989;DHT22;28622;43.716;20.668;2022-11-20T12:06:39;11.10;99.90
42989;DHT22;28622;43.716;20.668;2022-11-20T12:09:12;11.10;99.90
42989;DHT22;28622;43.716;20.668;2022-11-20T12:11:55;11.20;99.90
42989;DHT22;28622;43.716;20.668;2022-11-20T12:14:34;11.20;99.90
42989;DHT22;28622;43.716;20.668;2022-11-20T12:17:03;11.10;99.90
42989;DHT22;28622;43.716;20.668;2022-11-20T12:19:34;11.10;99.90
42989;DHT22;28622;43.716;20.668;2022-11-20T12:27:40;11.00;99.90
42989;DHT22;28622;43.716;20.668;2022-11-20T12:30:17;11.00;99.90
42989;DHT22;28622;43.716;20.668;2022-11-20T12:48:05;10.80;99.90
42989;DHT22;28622;43.716;20.668;2022-11-20T12:52:53;10.80;99.90
42989;DHT22;28622;43.716;20.668;2022-11-20T13:07:09;10.60;99.90
42989;DHT22;28622;43.716;20.668;2022-11-20T13:09:58;10.50;99.90
42989;DHT22;28622;43.716;20.668;2022-11-20T13:12:36;10.50;99.90
42989;DHT22;28622;43.716;20.668;2022-11-20T13:18:01;10.50;99.90
42989;DHT22;28622;43.716;20.668;2022-11-20T13:20:29;10.50;99.90
42989;DHT22;28622;43.716;20.668;2022-11-20T13:22:56;10.50;99.90
42989;DHT22;28622;43.716;20.668;2022-11-20T13:25:30;10.50;99.90
42989;DHT22;28622;43.716;20.668;2022-11-20T13:27:58;10.40;99.90
42989;DHT22;28622;43.716;20.668;2022-11-20T13:30:29;10.50;99.90
42989;DHT22;28622;43.716;20.668;2022-11-20T13:33:06;10.50;99.90
42989;DHT22;28622;43.716;20.668;2022-11-20T13:35:41;10.40;99.90
42989;DHT22;28622;43.716;20.668;2022-11-20T13:38:12;10.50;99.90
42989;DHT22;28622;43.716;20.668;2022-11-20T13:43:38;10.40;99.90
42989;DHT22;28622;43.716;20.668;2022-11-20T13:46:07;10.30;99.90
42989;DHT22;28622;43.716;20.668;2022-11-20T13:48:44;10.30;99.90
42989;DHT22;28622;43.716;20.668;2022-11-20T14:02:00;10.10;99.90
42989;DHT22;28622;43.716;20.668;2022-11-20T14:04:35;10.10;99.90
42989;DHT22;28622;43.716;20.668;2022-11-20T14:07:05;10.10;99.90
42989;DHT22;28622;43.716;20.668;2022-11-20T14:09:33;10.00;99.90
42989;DHT22;28622;43.716;20.668;2022-11-20T14:12:12;10.00;99.90
42989;DHT22;28622;43.716;20.668;2022-11-20T14:14:51;10.00;99.90
42989;DHT22;28622;43.716;20.668;2022-11-20T14:17:19;9.90;99.90
42989;DHT22;28622;43.716;20.668;2022-11-20T14:19:48;9.90;99.90
42989;DHT22;28622;43.716;20.668;2022-11-20T14:24:46;9.80;99.90
42989;DHT22;28622;43.716;20.668;2022-11-20T14:27:18;9.80;99.90
42989;DHT22;28622;43.716;20.668;2022-11-20T14:29:50;9.70;99.90
42989;DHT22;28622;43.716;20.668;2022-11-20T14:32:17;9.70;99.90
42989;DHT22;28622;43.716;20.668;2022-11-20T14:34:47;9.50;99.90
42989;DHT22;28622;43.716;20.668;2022-11-20T14:37:24;9.40;99.90
42989;DHT22;28622;43.716;20.668;2022-11-20T14:39:53;9.40;99.90
42989;DHT22;28622;43.716;20.668;2022-11-20T14:42:25;9.30;99.90
42989;DHT22;28622;43.716;20.668;2022-11-20T14:44:55;9.30;99.90
42989;DHT22;28622;43.716;20.668;2022-11-20T14:47:26;9.30;99.90
42989;DHT22;28622;43.716;20.668;2022-11-20T14:49:53;9.30;99.90
42989;DHT22;28622;43.716;20.668;2022-11-20T14:52:22;9.30;99.90
42989;DHT22;28622;43.716;20.668;2022-11-20T14:54:57;9.20;99.90
42989;DHT22;28622;43.716;20.668;2022-11-20T14:57:32;9.10;99.90
42989;DHT22;28622;43.716;20.668;2022-11-20T15:02:44;9.00;99.90
42989;DHT22;28622;43.716;20.668;2022-11-20T15:05:11;9.10;99.90
42989;DHT22;28622;43.716;20.668;2022-11-20T15:07:41;8.90;99.90
42989;DHT22;28622;43.716;20.668;2022-11-20T15:10:12;8.90;99.90
42989;DHT22;28622;43.716;20.668;2022-11-20T15:12:50;8.80;99.90
42989;DHT22;28622;43.716;20.668;2022-11-20T15:15:39;8.80;99.90
42989;DHT22;28622;43.716;20.668;2022-11-20T15:20:54;8.70;99.90
42989;DHT22;28622;43.716;20.668;2022-11-20T15:23:21;8.70;99.90
42989;DHT22;28622;43.716;20.668;2022-11-20T15:25:48;8.70;99.90
42989;DHT22;28622;43.716;20.668;2022-11-20T15:28:41;8.70;99.90
42989;DHT22;28622;43.716;20.668;2022-11-20T15:42:24;8.60;99.90
42989;DHT22;28622;43.716;20.668;2022-11-20T15:44:51;9.00;99.90
42989;DHT22;28622;43.716;20.668;2022-11-20T15:47:17;9.00;99.90
42989;DHT22;28622;43.716;20.668;2022-11-20T15:49:43;8.90;99.90
42989;DHT22;28622;43.716;20.668;2022-11-20T15:52:10;8.80;99.90
42989;DHT22;28622;43.716;20.668;2022-11-20T15:54:36;8.70;99.90
42989;DHT22;28622;43.716;20.668;2022-11-20T15:57:02;8.70;99.90
42989;DHT22;28622;43.716;20.668;2022-11-20T15:59:29;8.70;99.90
42989;DHT22;28622;43.716;20.668;2022-11-20T16:01:56;8.70;99.90
42989;DHT22;28622;43.716;20.668;2022-11-20T16:04:22;8.70;99.90
42989;DHT22;28622;43.716;20.668;2022-11-20T16:06:49;8.70;99.90
42989;DHT22;28622;43.716;20.668;2022-11-20T16:09:16;8.60;99.90
42989;DHT22;28622;43.716;20.668;2022-11-20T16:11:42;8.60;99.90
42989;DHT22;28622;43.716;20.668;2022-11-20T16:14:12;8.50;99.90
42989;DHT22;28622;43.716;20.668;2022-11-20T16:16:56;8.50;99.90
42989;DHT22;28622;43.716;20.668;2022-11-20T16:19:23;8.50;99.90
42989;DHT22;28622;43.716;20.668;2022-11-20T16:21:50;8.40;99.90
42989;DHT22;28622;43.716;20.668;2022-11-20T16:24:17;8.40;99.90
42989;DHT22;28622;43.716;20.668;2022-11-20T16:26:43;8.40;99.90
42989;DHT22;28622;43.716;20.668;2022-11-20T16:29:09;8.40;99.90
42989;DHT22;28622;43.716;20.668;2022-11-20T16:31:35;8.40;99.90
42989;DHT22;28622;43.716;20.668;2022-11-20T16:34:04;8.40;99.90
42989;DHT22;28622;43.716;20.668;2022-11-20T16:36:30;8.40;99.90
42989;DHT22;28622;43.716;20.668;2022-11-20T16:39:01;8.40;99.90
42989;DHT22;28622;43.716;20.668;2022-11-20T16:41:31;8.40;99.90
42989;DHT22;28622;43.716;20.668;2022-11-20T16:43:59;8.40;99.90
42989;DHT22;28622;43.716;20.668;2022-11-20T16:46:30;8.40;99.90
42989;DHT22;28622;43.716;20.668;2022-11-20T16:51:24;8.40;99.90
42989;DHT22;28622;43.716;20.668;2022-11-20T16:53:51;8.40;99.90
42989;DHT22;28622;43.716;20.668;2022-11-20T16:56:23;8.40;99.90
42989;DHT22;28622;43.716;20.668;2022-11-20T16:58:50;8.30;99.90
42989;DHT22;28622;43.716;20.668;2022-11-20T17:01:18;8.20;99.90
42989;DHT22;28622;43.716;20.668;2022-11-20T17:03:53;8.20;99.90
42989;DHT22;28622;43.716;20.668;2022-11-20T17:06:22;8.20;99.90
42989;DHT22;28622;43.716;20.668;2022-11-20T17:08:48;8.20;99.90
42989;DHT22;28622;43.716;20.668;2022-11-20T17:11:16;8.20;99.90
42989;DHT22;28622;43.716;20.668;2022-11-20T17:13:43;8.20;99.90
42989;DHT22;28622;43.716;20.668;2022-11-20T17:16:11;8.10;99.90
42989;DHT22;28622;43.716;20.668;2022-11-20T17:18:40;8.10;99.90
42989;DHT22;28622;43.716;20.668;2022-11-20T17:21:06;8.10;99.90
42989;DHT22;28622;43.716;20.668;2022-11-20T17:23:36;8.10;99.90
42989;DHT22;28622;43.716;20.668;2022-11-20T17:26:04;8.10;99.90
42989;DHT22;28622;43.716;20.668;2022-11-20T17:28:31;8.10;99.90
42989;DHT22;28622;43.716;20.668;2022-11-20T17:31:01;8.10;99.90
42989;DHT22;28622;43.716;20.668;2022-11-20T17:33:28;8.00;99.90
42989;DHT22;28622;43.716;20.668;2022-11-20T17:35:54;8.00;99.90
42989;DHT22;28622;43.716;20.668;2022-11-20T17:38:20;8.00;99.90
42989;DHT22;28622;43.716;20.668;2022-11-20T17:40:46;8.00;99.90